sensor_id;sensor_type;location;lat;lon;timestamp;P1;durP1;ratioP1;P2;durP2;ratioP2
4355;SDS011;64374;51.482;7.408;2023-03-01T00:01:49;7.33;;;5.37;;
4355;SDS011;64374;51.482;7.408;2023-03-01T00:04:18;7.47;;;5.63;;
4355;SDS011;64374;51.482;7.408;2023-03-01T00:06:47;10.60;;;5.83;;
4355;SDS011;64374;51.482;7.408;2023-03-01T00:09:16;9.03;;;6.20;;
4355;SDS011;64374;51.482;7.408;2023-03-01T00:11:45;7.60;;;5.90;;
4355;SDS011;64374;51.482;7.408;2023-03-01T00:14:13;8.77;;;6.00;;
4355;SDS011;64374;51.482;7.408;2023-03-01T00:16:45;8.30;;;6.10;;
4355;SDS011;64374;51.482;7.408;2023-03-01T00:19:15;7.70;;;6.33;;
4355;SDS011;64374;51.482;7.408;2023-03-01T00:21:45;7.53;;;5.40;;
4355;SDS011;64374;51.482;7.408;2023-03-01T00:24:14;13.13;;;6.40;;
4355;SDS011;64374;51.482;7.408;2023-03-01T00:26:42;8.07;;;6.10;;
4355;SDS011;64374;51.482;7.408;2023-03-01T00:29:11;9.10;;;5.77;;
4355;SDS011;64374;51.482;7.408;2023-03-01T00:31:39;10.90;;;6.90;;
4355;SDS011;64374;51.482;7.408;2023-03-01T00:34:08;9.20;;;6.10;;
4355;SDS011;64374;51.482;7.408;2023-03-01T00:36:37;8.93;;;6.40;;
4355;SDS011;64374;51.482;7.408;2023-03-01T00:39:09;9.40;;;5.77;;
4355;SDS011;64374;51.482;7.408;2023-03-01T00:41:39;8.00;;;5.43;;
4355;SDS011;64374;51.482;7.408;2023-03-01T00:44:07;9.70;;;6.03;;
4355;SDS011;64374;51.482;7.408;2023-03-01T00:46:36;6.93;;;5.77;;
4355;SDS011;64374;51.482;7.408;2023-03-01T00:49:04;9.43;;;6.63;;
4355;SDS011;64374;51.482;7.408;2023-03-01T00:51:34;7.77;;;5.90;;
4355;SDS011;64374;51.482;7.408;2023-03-01T00:54:03;10.47;;;6.77;;
4355;SDS011;64374;51.482;7.408;2023-03-01T00:56:31;8.43;;;5.90;;
4355;SDS011;64374;51.482;7.408;2023-03-01T00:59:00;9.20;;;6.60;;
4355;SDS011;64374;51.482;7.408;2023-03-01T01:01:29;11.30;;;6.00;;
4355;SDS011;64374;51.482;7.408;2023-03-01T01:03:59;10.77;;;6.40;;
4355;SDS011;64374;51.482;7.408;2023-03-01T01:06:30;10.47;;;6.07;;
4355;SDS011;64374;51.482;7.408;2023-03-01T01:09:01;9.83;;;6.90;;
4355;SDS011;64374;51.482;7.408;2023-03-01T01:11:33;8.43;;;6.17;;
4355;SDS011;64374;51.482;7.408;2023-03-01T01:14:03;8.93;;;6.50;;
4355;SDS011;64374;51.482;7.408;2023-03-01T01:16:32;8.87;;;6.80;;
4355;SDS011;64374;51.482;7.408;2023-03-01T01:19:01;9.10;;;6.30;;
4355;SDS011;64374;51.482;7.408;2023-03-01T01:22:02;7.83;;;5.67;;
4355;SDS011;64374;51.482;7.408;2023-03-01T01:24:32;9.30;;;6.60;;
4355;SDS011;64374;51.482;7.408;2023-03-01T01:27:00;13.03;;;6.10;;
4355;SDS011;64374;51.482;7.408;2023-03-01T01:29:28;9.47;;;6.17;;
4355;SDS011;64374;51.482;7.408;2023-03-01T01:31:56;6.17;;;5.57;;
4355;SDS011;64374;51.482;7.408;2023-03-01T01:34:25;9.40;;;6.60;;
4355;SDS011;64374;51.482;7.408;2023-03-01T01:36:54;8.90;;;6.17;;
4355;SDS011;64374;51.482;7.408;2023-03-01T01:39:22;13.63;;;6.53;;
4355;SDS011;64374;51.482;7.408;2023-03-01T01:41:52;10.80;;;6.90;;
4355;SDS011;64374;51.482;7.408;2023-03-01T01:44:21;13.77;;;6.73;;
4355;SDS011;64374;51.482;7.408;2023-03-01T01:46:52;11.47;;;6.20;;
4355;SDS011;64374;51.482;7.408;2023-03-01T01:49:25;11.33;;;6.50;;
4355;SDS011;64374;51.482;7.408;2023-03-01T01:51:59;9.07;;;6.90;;
4355;SDS011;64374;51.482;7.408;2023-03-01T01:54:38;8.73;;;6.20;;
4355;SDS011;64374;51.482;7.408;2023-03-01T01:57:13;11.20;;;5.97;;
4355;SDS011;64374;51.482;7.408;2023-03-01T01:59:47;8.70;;;5.97;;
4355;SDS011;64374;51.482;7.408;2023-03-01T02:02:20;10.53;;;6.87;;
4355;SDS011;64374;51.482;7.408;2023-03-01T02:04:50;9.20;;;7.20;;
4355;SDS011;64374;51.482;7.408;2023-03-01T02:07:37;8.70;;;5.90;;
4355;SDS011;64374;51.482;7.408;2023-03-01T02:10:07;9.10;;;6.20;;
4355;SDS011;64374;51.482;7.408;2023-03-01T02:12:40;9.57;;;6.60;;
4355;SDS011;64374;51.482;7.408;2023-03-01T02:15:10;10.10;;;6.10;;
4355;SDS011;64374;51.482;7.408;2023-03-01T02:17:38;9.17;;;6.83;;
4355;SDS011;64374;51.482;7.408;2023-03-01T02:20:10;9.17;;;7.00;;
4355;SDS011;64374;51.482;7.408;2023-03-01T02:22:47;8.10;;;6.70;;
4355;SDS011;64374;51.482;7.408;2023-03-01T02:25:31;8.00;;;6.37;;
4355;SDS011;64374;51.482;7.408;2023-03-01T02:28:05;10.73;;;6.40;;
4355;SDS011;64374;51.482;7.408;2023-03-01T02:30:51;11.57;;;7.17;;
4355;SDS011;64374;51.482;7.408;2023-03-01T02:33:38;13.30;;;7.13;;
4355;SDS011;64374;51.482;7.408;2023-03-01T02:36:08;7.30;;;6.20;;
4355;SDS011;64374;51.482;7.408;2023-03-01T02:38:41;13.20;;;6.70;;
4355;SDS011;64374;51.482;7.408;2023-03-01T02:41:10;17.23;;;7.40;;
4355;SDS011;64374;51.482;7.408;2023-03-01T02:43:42;7.60;;;6.50;;
4355;SDS011;64374;51.482;7.408;2023-03-01T02:46:15;9.80;;;7.43;;
4355;SDS011;64374;51.482;7.408;2023-03-01T02:48:47;8.30;;;7.30;;
4355;SDS011;64374;51.482;7.408;2023-03-01T02:51:21;9.87;;;7.80;;
4355;SDS011;64374;51.482;7.408;2023-03-01T02:53:58;8.00;;;6.73;;
4355;SDS011;64374;51.482;7.408;2023-03-01T02:56:33;10.90;;;7.63;;
4355;SDS011;64374;51.482;7.408;2023-03-01T02:59:03;12.80;;;7.77;;
4355;SDS011;64374;51.482;7.408;2023-03-01T03:01:34;11.20;;;7.83;;
4355;SDS011;64374;51.482;7.408;2023-03-01T03:04:08;8.77;;;7.23;;
4355;SDS011;64374;51.482;7.408;2023-03-01T03:06:38;9.87;;;6.67;;
4355;SDS011;64374;51.482;7.408;2023-03-01T03:09:09;9.30;;;7.43;;
4355;SDS011;64374;51.482;7.408;2023-03-01T03:11:42;7.73;;;5.97;;
4355;SDS011;64374;51.482;7.408;2023-03-01T03:14:11;11.13;;;7.00;;
4355;SDS011;64374;51.482;7.408;2023-03-01T03:16:46;10.87;;;7.80;;
4355;SDS011;64374;51.482;7.408;2023-03-01T03:19:19;10.00;;;7.60;;
4355;SDS011;64374;51.482;7.408;2023-03-01T03:21:47;9.47;;;7.43;;
4355;SDS011;64374;51.482;7.408;2023-03-01T03:24:15;11.53;;;6.50;;
4355;SDS011;64374;51.482;7.408;2023-03-01T03:27:07;9.03;;;6.67;;
4355;SDS011;64374;51.482;7.408;2023-03-01T03:29:35;18.93;;;6.70;;
4355;SDS011;64374;51.482;7.408;2023-03-01T03:32:05;9.67;;;7.13;;
4355;SDS011;64374;51.482;7.408;2023-03-01T03:34:33;13.17;;;8.40;;
4355;SDS011;64374;51.482;7.408;2023-03-01T03:37:02;14.37;;;7.90;;
4355;SDS011;64374;51.482;7.408;2023-03-01T03:39:51;10.23;;;7.20;;
4355;SDS011;64374;51.482;7.408;2023-03-01T03:42:21;12.40;;;7.80;;
4355;SDS011;64374;51.482;7.408;2023-03-01T03:44:49;11.70;;;7.70;;
4355;SDS011;64374;51.482;7.408;2023-03-01T03:47:18;13.47;;;8.57;;
4355;SDS011;64374;51.482;7.408;2023-03-01T03:49:46;10.53;;;7.20;;
4355;SDS011;64374;51.482;7.408;2023-03-01T03:52:16;9.70;;;8.30;;
4355;SDS011;64374;51.482;7.408;2023-03-01T03:54:44;12.00;;;8.70;;
4355;SDS011;64374;51.482;7.408;2023-03-01T03:57:12;8.50;;;6.57;;
4355;SDS011;64374;51.482;7.408;2023-03-01T03:59:40;12.40;;;7.80;;
4355;SDS011;64374;51.482;7.408;2023-03-01T04:02:09;12.13;;;7.70;;
4355;SDS011;64374;51.482;7.408;2023-03-01T04:04:39;11.30;;;7.77;;
4355;SDS011;64374;51.482;7.408;2023-03-01T04:07:07;13.17;;;7.00;;
4355;SDS011;64374;51.482;7.408;2023-03-01T04:09:36;10.90;;;7.40;;
4355;SDS011;64374;51.482;7.408;2023-03-01T04:12:05;11.50;;;7.33;;
4355;SDS011;64374;51.482;7.408;2023-03-01T04:14:33;11.03;;;8.13;;
4355;SDS011;64374;51.482;7.408;2023-03-01T04:17:01;11.00;;;7.10;;
4355;SDS011;64374;51.482;7.408;2023-03-01T04:19:33;10.63;;;7.33;;
4355;SDS011;64374;51.482;7.408;2023-03-01T04:22:03;13.10;;;7.47;;
4355;SDS011;64374;51.482;7.408;2023-03-01T04:24:37;14.40;;;8.90;;
4355;SDS011;64374;51.482;7.408;2023-03-01T04:27:07;9.97;;;7.80;;
4355;SDS011;64374;51.482;7.408;2023-03-01T04:29:36;13.37;;;7.63;;
4355;SDS011;64374;51.482;7.408;2023-03-01T04:32:04;11.93;;;7.70;;
4355;SDS011;64374;51.482;7.408;2023-03-01T04:34:32;10.63;;;7.40;;
4355;SDS011;64374;51.482;7.408;2023-03-01T04:37:01;9.90;;;8.27;;
4355;SDS011;64374;51.482;7.408;2023-03-01T04:39:30;12.67;;;8.40;;
4355;SDS011;64374;51.482;7.408;2023-03-01T04:41:59;13.37;;;8.03;;
4355;SDS011;64374;51.482;7.408;2023-03-01T04:44:27;10.47;;;7.13;;
4355;SDS011;64374;51.482;7.408;2023-03-01T04:46:55;11.97;;;8.70;;
4355;SDS011;64374;51.482;7.408;2023-03-01T04:49:23;12.33;;;8.20;;
4355;SDS011;64374;51.482;7.408;2023-03-01T04:51:51;13.23;;;8.00;;
4355;SDS011;64374;51.482;7.408;2023-03-01T04:54:20;9.40;;;8.03;;
4355;SDS011;64374;51.482;7.408;2023-03-01T04:56:51;12.60;;;8.00;;
4355;SDS011;64374;51.482;7.408;2023-03-01T04:59:20;11.53;;;8.37;;
4355;SDS011;64374;51.482;7.408;2023-03-01T05:01:50;12.00;;;7.60;;
4355;SDS011;64374;51.482;7.408;2023-03-01T05:04:18;10.60;;;7.77;;
4355;SDS011;64374;51.482;7.408;2023-03-01T05:06:48;10.70;;;7.97;;
4355;SDS011;64374;51.482;7.408;2023-03-01T05:09:16;12.97;;;8.20;;
4355;SDS011;64374;51.482;7.408;2023-03-01T05:11:45;11.57;;;8.77;;
4355;SDS011;64374;51.482;7.408;2023-03-01T05:14:14;13.10;;;7.87;;
4355;SDS011;64374;51.482;7.408;2023-03-01T05:16:43;12.60;;;8.70;;
4355;SDS011;64374;51.482;7.408;2023-03-01T05:19:11;12.50;;;8.90;;
4355;SDS011;64374;51.482;7.408;2023-03-01T05:21:42;13.03;;;8.40;;
4355;SDS011;64374;51.482;7.408;2023-03-01T05:24:31;15.83;;;8.97;;
4355;SDS011;64374;51.482;7.408;2023-03-01T05:27:01;12.83;;;8.83;;
4355;SDS011;64374;51.482;7.408;2023-03-01T05:29:32;13.10;;;8.37;;
4355;SDS011;64374;51.482;7.408;2023-03-01T05:32:01;12.10;;;8.53;;
4355;SDS011;64374;51.482;7.408;2023-03-01T05:34:31;13.43;;;8.70;;
4355;SDS011;64374;51.482;7.408;2023-03-01T05:37:02;10.07;;;7.80;;
4355;SDS011;64374;51.482;7.408;2023-03-01T05:39:31;19.53;;;9.30;;
4355;SDS011;64374;51.482;7.408;2023-03-01T05:42:00;12.10;;;8.70;;
4355;SDS011;64374;51.482;7.408;2023-03-01T05:44:31;12.27;;;8.57;;
4355;SDS011;64374;51.482;7.408;2023-03-01T05:47:00;12.50;;;8.33;;
4355;SDS011;64374;51.482;7.408;2023-03-01T05:49:28;12.10;;;8.20;;
4355;SDS011;64374;51.482;7.408;2023-03-01T05:51:57;14.73;;;9.10;;
4355;SDS011;64374;51.482;7.408;2023-03-01T05:54:26;16.23;;;8.73;;
4355;SDS011;64374;51.482;7.408;2023-03-01T05:56:57;11.40;;;8.53;;
4355;SDS011;64374;51.482;7.408;2023-03-01T05:59:25;14.77;;;9.87;;
4355;SDS011;64374;51.482;7.408;2023-03-01T06:01:55;14.87;;;9.10;;
4355;SDS011;64374;51.482;7.408;2023-03-01T06:04:23;14.20;;;8.53;;
4355;SDS011;64374;51.482;7.408;2023-03-01T06:06:51;14.63;;;8.97;;
4355;SDS011;64374;51.482;7.408;2023-03-01T06:09:19;11.27;;;8.27;;
4355;SDS011;64374;51.482;7.408;2023-03-01T06:11:47;11.77;;;8.03;;
4355;SDS011;64374;51.482;7.408;2023-03-01T06:14:16;11.90;;;9.30;;
4355;SDS011;64374;51.482;7.408;2023-03-01T06:16:45;16.63;;;8.37;;
4355;SDS011;64374;51.482;7.408;2023-03-01T06:19:16;15.03;;;7.60;;
4355;SDS011;64374;51.482;7.408;2023-03-01T06:21:45;11.60;;;8.63;;
4355;SDS011;64374;51.482;7.408;2023-03-01T06:24:13;12.90;;;9.30;;
4355;SDS011;64374;51.482;7.408;2023-03-01T06:26:42;16.10;;;10.30;;
4355;SDS011;64374;51.482;7.408;2023-03-01T06:29:10;15.97;;;9.00;;
4355;SDS011;64374;51.482;7.408;2023-03-01T06:31:42;12.83;;;9.00;;
4355;SDS011;64374;51.482;7.408;2023-03-01T06:34:12;16.93;;;10.20;;
4355;SDS011;64374;51.482;7.408;2023-03-01T06:36:42;13.07;;;7.80;;
4355;SDS011;64374;51.482;7.408;2023-03-01T06:39:18;15.80;;;8.70;;
4355;SDS011;64374;51.482;7.408;2023-03-01T06:41:46;13.10;;;8.97;;
4355;SDS011;64374;51.482;7.408;2023-03-01T06:44:14;15.23;;;9.40;;
4355;SDS011;64374;51.482;7.408;2023-03-01T06:46:42;16.13;;;9.13;;
4355;SDS011;64374;51.482;7.408;2023-03-01T06:49:11;11.73;;;8.67;;
4355;SDS011;64374;51.482;7.408;2023-03-01T06:51:47;13.63;;;8.77;;
4355;SDS011;64374;51.482;7.408;2023-03-01T06:54:15;15.03;;;8.20;;
4355;SDS011;64374;51.482;7.408;2023-03-01T06:56:46;15.43;;;8.77;;
4355;SDS011;64374;51.482;7.408;2023-03-01T06:59:15;12.43;;;8.43;;
4355;SDS011;64374;51.482;7.408;2023-03-01T07:01:44;20.17;;;10.30;;
4355;SDS011;64374;51.482;7.408;2023-03-01T07:04:12;14.23;;;10.10;;
4355;SDS011;64374;51.482;7.408;2023-03-01T07:06:45;19.43;;;9.60;;
4355;SDS011;64374;51.482;7.408;2023-03-01T07:09:20;13.63;;;9.60;;
4355;SDS011;64374;51.482;7.408;2023-03-01T07:11:49;22.23;;;10.30;;
4355;SDS011;64374;51.482;7.408;2023-03-01T07:14:17;17.60;;;10.20;;
4355;SDS011;64374;51.482;7.408;2023-03-01T07:16:47;17.13;;;11.43;;
4355;SDS011;64374;51.482;7.408;2023-03-01T07:19:16;18.60;;;10.13;;
4355;SDS011;64374;51.482;7.408;2023-03-01T07:21:45;16.00;;;11.20;;
4355;SDS011;64374;51.482;7.408;2023-03-01T07:24:14;17.90;;;9.43;;
4355;SDS011;64374;51.482;7.408;2023-03-01T07:26:42;24.40;;;11.20;;
4355;SDS011;64374;51.482;7.408;2023-03-01T07:29:13;18.43;;;10.40;;
4355;SDS011;64374;51.482;7.408;2023-03-01T07:31:42;15.57;;;9.67;;
4355;SDS011;64374;51.482;7.408;2023-03-01T07:34:12;19.53;;;10.03;;
4355;SDS011;64374;51.482;7.408;2023-03-01T07:36:40;22.90;;;10.00;;
4355;SDS011;64374;51.482;7.408;2023-03-01T07:39:11;24.70;;;11.47;;
4355;SDS011;64374;51.482;7.408;2023-03-01T07:41:39;15.00;;;9.77;;
4355;SDS011;64374;51.482;7.408;2023-03-01T07:44:12;11.07;;;7.60;;
4355;SDS011;64374;51.482;7.408;2023-03-01T07:46:40;12.30;;;8.97;;
4355;SDS011;64374;51.482;7.408;2023-03-01T07:49:08;18.00;;;10.37;;
4355;SDS011;64374;51.482;7.408;2023-03-01T07:51:36;10.00;;;8.30;;
4355;SDS011;64374;51.482;7.408;2023-03-01T07:54:05;18.50;;;8.83;;
4355;SDS011;64374;51.482;7.408;2023-03-01T07:56:34;12.57;;;8.50;;
4355;SDS011;64374;51.482;7.408;2023-03-01T07:59:02;12.10;;;9.33;;
4355;SDS011;64374;51.482;7.408;2023-03-01T08:01:30;14.00;;;8.13;;
4355;SDS011;64374;51.482;7.408;2023-03-01T08:03:59;12.83;;;9.70;;
4355;SDS011;64374;51.482;7.408;2023-03-01T08:06:28;15.63;;;8.50;;
4355;SDS011;64374;51.482;7.408;2023-03-01T08:08:57;14.40;;;8.97;;
4355;SDS011;64374;51.482;7.408;2023-03-01T08:11:25;12.77;;;9.40;;
4355;SDS011;64374;51.482;7.408;2023-03-01T08:13:58;15.90;;;9.87;;
4355;SDS011;64374;51.482;7.408;2023-03-01T08:16:26;15.90;;;9.93;;
4355;SDS011;64374;51.482;7.408;2023-03-01T08:18:55;18.77;;;8.77;;
4355;SDS011;64374;51.482;7.408;2023-03-01T08:21:26;17.10;;;8.93;;
4355;SDS011;64374;51.482;7.408;2023-03-01T08:23:54;15.07;;;9.60;;
4355;SDS011;64374;51.482;7.408;2023-03-01T08:26:24;16.83;;;9.77;;
4355;SDS011;64374;51.482;7.408;2023-03-01T08:28:54;16.53;;;8.80;;
4355;SDS011;64374;51.482;7.408;2023-03-01T08:31:24;16.47;;;9.57;;
4355;SDS011;64374;51.482;7.408;2023-03-01T08:33:56;14.13;;;8.40;;
4355;SDS011;64374;51.482;7.408;2023-03-01T08:36:26;14.87;;;9.40;;
4355;SDS011;64374;51.482;7.408;2023-03-01T08:38:58;15.60;;;9.00;;
4355;SDS011;64374;51.482;7.408;2023-03-01T08:41:26;13.37;;;8.90;;
4355;SDS011;64374;51.482;7.408;2023-03-01T08:43:56;13.70;;;9.27;;
4355;SDS011;64374;51.482;7.408;2023-03-01T08:46:28;18.87;;;9.00;;
4355;SDS011;64374;51.482;7.408;2023-03-01T08:48:59;9.03;;;6.80;;
4355;SDS011;64374;51.482;7.408;2023-03-01T08:51:27;13.50;;;8.97;;
4355;SDS011;64374;51.482;7.408;2023-03-01T08:53:57;11.90;;;7.70;;
4355;SDS011;64374;51.482;7.408;2023-03-01T08:56:25;10.73;;;6.90;;
4355;SDS011;64374;51.482;7.408;2023-03-01T08:58:56;18.70;;;7.90;;
4355;SDS011;64374;51.482;7.408;2023-03-01T09:01:24;11.57;;;8.20;;
4355;SDS011;64374;51.482;7.408;2023-03-01T09:03:54;13.63;;;8.37;;
4355;SDS011;64374;51.482;7.408;2023-03-01T09:06:23;11.80;;;7.77;;
4355;SDS011;64374;51.482;7.408;2023-03-01T09:08:53;11.77;;;7.50;;
4355;SDS011;64374;51.482;7.408;2023-03-01T09:11:21;10.00;;;7.30;;
4355;SDS011;64374;51.482;7.408;2023-03-01T09:13:50;10.33;;;6.90;;
4355;SDS011;64374;51.482;7.408;2023-03-01T09:16:19;8.93;;;7.30;;
4355;SDS011;64374;51.482;7.408;2023-03-01T09:18:48;11.80;;;8.00;;
4355;SDS011;64374;51.482;7.408;2023-03-01T09:21:21;11.00;;;7.30;;
4355;SDS011;64374;51.482;7.408;2023-03-01T09:24:27;13.73;;;7.20;;
4355;SDS011;64374;51.482;7.408;2023-03-01T09:26:56;11.53;;;7.03;;
4355;SDS011;64374;51.482;7.408;2023-03-01T09:29:25;11.97;;;7.47;;
4355;SDS011;64374;51.482;7.408;2023-03-01T09:31:53;13.07;;;8.37;;
4355;SDS011;64374;51.482;7.408;2023-03-01T09:34:22;8.70;;;6.80;;
4355;SDS011;64374;51.482;7.408;2023-03-01T09:36:52;10.83;;;7.30;;
4355;SDS011;64374;51.482;7.408;2023-03-01T09:39:20;11.50;;;6.70;;
4355;SDS011;64374;51.482;7.408;2023-03-01T09:41:49;8.33;;;6.50;;
4355;SDS011;64374;51.482;7.408;2023-03-01T09:44:29;12.73;;;7.37;;
4355;SDS011;64374;51.482;7.408;2023-03-01T09:47:03;8.10;;;5.90;;
4355;SDS011;64374;51.482;7.408;2023-03-01T09:49:33;8.13;;;6.67;;
4355;SDS011;64374;51.482;7.408;2023-03-01T09:52:07;9.30;;;6.57;;
4355;SDS011;64374;51.482;7.408;2023-03-01T09:54:48;11.87;;;7.13;;
4355;SDS011;64374;51.482;7.408;2023-03-01T09:57:20;6.57;;;5.43;;
4355;SDS011;64374;51.482;7.408;2023-03-01T10:00:00;15.60;;;6.97;;
4355;SDS011;64374;51.482;7.408;2023-03-01T10:02:38;11.63;;;6.40;;
4355;SDS011;64374;51.482;7.408;2023-03-01T10:05:21;14.10;;;5.97;;
4355;SDS011;64374;51.482;7.408;2023-03-01T10:08:05;5.53;;;4.93;;
4355;SDS011;64374;51.482;7.408;2023-03-01T10:10:46;7.67;;;5.93;;
4355;SDS011;64374;51.482;7.408;2023-03-01T10:13:17;10.10;;;6.47;;
4355;SDS011;64374;51.482;7.408;2023-03-01T10:15:48;11.30;;;5.90;;
4355;SDS011;64374;51.482;7.408;2023-03-01T10:18:22;12.43;;;6.30;;
4355;SDS011;64374;51.482;7.408;2023-03-01T10:20:54;7.00;;;5.43;;
4355;SDS011;64374;51.482;7.408;2023-03-01T10:23:29;8.53;;;5.80;;
4355;SDS011;64374;51.482;7.408;2023-03-01T10:28:54;7.00;;;5.20;;
4355;SDS011;64374;51.482;7.408;2023-03-01T10:31:33;8.47;;;5.00;;
4355;SDS011;64374;51.482;7.408;2023-03-01T10:34:08;11.23;;;6.23;;
4355;SDS011;64374;51.482;7.408;2023-03-01T10:36:40;8.40;;;5.00;;
4355;SDS011;64374;51.482;7.408;2023-03-01T10:39:18;8.03;;;5.23;;
4355;SDS011;64374;51.482;7.408;2023-03-01T10:41:53;9.37;;;5.83;;
4355;SDS011;64374;51.482;7.408;2023-03-01T10:44:38;11.30;;;6.60;;
4355;SDS011;64374;51.482;7.408;2023-03-01T10:47:20;8.07;;;5.93;;
4355;SDS011;64374;51.482;7.408;2023-03-01T10:50:01;10.43;;;5.93;;
4355;SDS011;64374;51.482;7.408;2023-03-01T10:52:31;11.93;;;6.13;;
4355;SDS011;64374;51.482;7.408;2023-03-01T10:55:04;9.07;;;6.03;;
4355;SDS011;64374;51.482;7.408;2023-03-01T10:58:00;7.53;;;5.93;;
4355;SDS011;64374;51.482;7.408;2023-03-01T11:00:45;7.60;;;6.17;;
4355;SDS011;64374;51.482;7.408;2023-03-01T11:03:16;7.37;;;6.20;;
4355;SDS011;64374;51.482;7.408;2023-03-01T11:05:53;8.30;;;6.40;;
4355;SDS011;64374;51.482;7.408;2023-03-01T11:08:37;9.63;;;6.17;;
4355;SDS011;64374;51.482;7.408;2023-03-01T11:11:16;8.83;;;6.27;;
4355;SDS011;64374;51.482;7.408;2023-03-01T11:13:59;11.07;;;6.80;;
4355;SDS011;64374;51.482;7.408;2023-03-01T11:16:58;9.00;;;5.53;;
4355;SDS011;64374;51.482;7.408;2023-03-01T11:19:27;7.50;;;6.00;;
4355;SDS011;64374;51.482;7.408;2023-03-01T11:21:57;10.23;;;6.37;;
4355;SDS011;64374;51.482;7.408;2023-03-01T11:24:31;8.33;;;6.17;;
4355;SDS011;64374;51.482;7.408;2023-03-01T11:27:18;11.17;;;7.33;;
4355;SDS011;64374;51.482;7.408;2023-03-01T11:29:51;9.00;;;6.07;;
4355;SDS011;64374;51.482;7.408;2023-03-01T11:32:24;9.00;;;5.97;;
4355;SDS011;64374;51.482;7.408;2023-03-01T11:35:00;8.27;;;6.30;;
4355;SDS011;64374;51.482;7.408;2023-03-01T11:37:33;9.93;;;5.73;;
4355;SDS011;64374;51.482;7.408;2023-03-01T11:40:10;7.30;;;6.10;;
4355;SDS011;64374;51.482;7.408;2023-03-01T11:42:45;10.40;;;6.00;;
4355;SDS011;64374;51.482;7.408;2023-03-01T11:45:32;11.07;;;7.43;;
4355;SDS011;64374;51.482;7.408;2023-03-01T11:48:17;9.87;;;6.60;;
4355;SDS011;64374;51.482;7.408;2023-03-01T11:51:16;12.00;;;6.70;;
4355;SDS011;64374;51.482;7.408;2023-03-01T11:54:04;11.10;;;6.80;;
4355;SDS011;64374;51.482;7.408;2023-03-01T11:56:41;6.80;;;5.70;;
4355;SDS011;64374;51.482;7.408;2023-03-01T11:59:23;12.70;;;7.13;;
4355;SDS011;64374;51.482;7.408;2023-03-01T12:02:12;8.50;;;6.50;;
4355;SDS011;64374;51.482;7.408;2023-03-01T12:05:02;9.00;;;6.90;;
4355;SDS011;64374;51.482;7.408;2023-03-01T12:07:58;11.27;;;6.30;;
4355;SDS011;64374;51.482;7.408;2023-03-01T12:10:40;9.93;;;6.77;;
4355;SDS011;64374;51.482;7.408;2023-03-01T12:13:21;9.40;;;6.60;;
4355;SDS011;64374;51.482;7.408;2023-03-01T12:16:05;8.27;;;6.63;;
4355;SDS011;64374;51.482;7.408;2023-03-01T12:21:56;8.00;;;6.23;;
4355;SDS011;64374;51.482;7.408;2023-03-01T12:24:38;12.20;;;6.67;;
4355;SDS011;64374;51.482;7.408;2023-03-01T12:27:38;9.17;;;7.30;;
4355;SDS011;64374;51.482;7.408;2023-03-01T12:30:32;9.27;;;6.57;;
4355;SDS011;64374;51.482;7.408;2023-03-01T12:33:16;8.47;;;6.57;;
4355;SDS011;64374;51.482;7.408;2023-03-01T12:35:59;8.67;;;6.53;;
4355;SDS011;64374;51.482;7.408;2023-03-01T12:38:50;10.23;;;6.70;;
4355;SDS011;64374;51.482;7.408;2023-03-01T12:41:31;9.60;;;6.40;;
4355;SDS011;64374;51.482;7.408;2023-03-01T12:44:13;10.40;;;6.70;;
4355;SDS011;64374;51.482;7.408;2023-03-01T12:46:56;9.97;;;6.27;;
4355;SDS011;64374;51.482;7.408;2023-03-01T12:49:36;11.83;;;7.33;;
4355;SDS011;64374;51.482;7.408;2023-03-01T12:52:11;9.80;;;6.60;;
4355;SDS011;64374;51.482;7.408;2023-03-01T12:54:44;13.50;;;7.30;;
4355;SDS011;64374;51.482;7.408;2023-03-01T12:57:15;14.73;;;6.77;;
4355;SDS011;64374;51.482;7.408;2023-03-01T12:59:51;8.83;;;6.30;;
4355;SDS011;64374;51.482;7.408;2023-03-01T13:02:36;8.67;;;6.20;;
4355;SDS011;64374;51.482;7.408;2023-03-01T13:05:21;9.20;;;6.33;;
4355;SDS011;64374;51.482;7.408;2023-03-01T13:07:58;9.30;;;6.63;;
4355;SDS011;64374;51.482;7.408;2023-03-01T13:10:33;7.73;;;6.67;;
4355;SDS011;64374;51.482;7.408;2023-03-01T13:13:11;7.60;;;6.50;;
4355;SDS011;64374;51.482;7.408;2023-03-01T13:15:46;13.97;;;7.20;;
4355;SDS011;64374;51.482;7.408;2023-03-01T13:18:29;8.93;;;6.33;;
4355;SDS011;64374;51.482;7.408;2023-03-01T13:21:11;6.60;;;6.00;;
4355;SDS011;64374;51.482;7.408;2023-03-01T13:23:41;6.43;;;5.73;;
4355;SDS011;64374;51.482;7.408;2023-03-01T13:26:17;10.77;;;7.40;;
4355;SDS011;64374;51.482;7.408;2023-03-01T13:28:50;9.60;;;7.10;;
4355;SDS011;64374;51.482;7.408;2023-03-01T13:37:35;8.10;;;6.83;;
4355;SDS011;64374;51.482;7.408;2023-03-01T13:43:23;7.17;;;6.37;;
4355;SDS011;64374;51.482;7.408;2023-03-01T13:46:00;7.33;;;5.97;;
4355;SDS011;64374;51.482;7.408;2023-03-01T13:48:36;8.20;;;6.77;;
4355;SDS011;64374;51.482;7.408;2023-03-01T13:51:07;6.93;;;6.33;;
4355;SDS011;64374;51.482;7.408;2023-03-01T13:53:47;8.40;;;7.00;;
4355;SDS011;64374;51.482;7.408;2023-03-01T13:56:16;6.90;;;6.30;;
4355;SDS011;64374;51.482;7.408;2023-03-01T13:58:49;12.43;;;6.00;;
4355;SDS011;64374;51.482;7.408;2023-03-01T14:01:21;7.97;;;6.70;;
4355;SDS011;64374;51.482;7.408;2023-03-01T14:03:52;7.57;;;5.67;;
4355;SDS011;64374;51.482;7.408;2023-03-01T14:06:22;7.03;;;6.00;;
4355;SDS011;64374;51.482;7.408;2023-03-01T14:09:01;7.87;;;7.10;;
4355;SDS011;64374;51.482;7.408;2023-03-01T14:14:48;7.70;;;6.60;;
4355;SDS011;64374;51.482;7.408;2023-03-01T14:17:29;7.37;;;6.67;;
4355;SDS011;64374;51.482;7.408;2023-03-01T14:20:26;7.23;;;6.53;;
4355;SDS011;64374;51.482;7.408;2023-03-01T14:22:57;7.97;;;6.07;;
4355;SDS011;64374;51.482;7.408;2023-03-01T14:25:28;11.70;;;6.70;;
4355;SDS011;64374;51.482;7.408;2023-03-01T14:28:00;6.50;;;5.63;;
4355;SDS011;64374;51.482;7.408;2023-03-01T14:30:36;8.03;;;7.20;;
4355;SDS011;64374;51.482;7.408;2023-03-01T14:33:16;6.67;;;5.97;;
4355;SDS011;64374;51.482;7.408;2023-03-01T14:38:38;7.33;;;6.63;;
4355;SDS011;64374;51.482;7.408;2023-03-01T14:41:10;9.23;;;7.30;;
4355;SDS011;64374;51.482;7.408;2023-03-01T14:43:43;8.73;;;5.43;;
4355;SDS011;64374;51.482;7.408;2023-03-01T14:46:18;10.00;;;6.90;;
4355;SDS011;64374;51.482;7.408;2023-03-01T14:48:48;12.20;;;6.57;;
4355;SDS011;64374;51.482;7.408;2023-03-01T14:51:21;7.70;;;6.60;;
4355;SDS011;64374;51.482;7.408;2023-03-01T14:53:50;11.67;;;6.53;;
4355;SDS011;64374;51.482;7.408;2023-03-01T14:56:21;11.97;;;7.17;;
4355;SDS011;64374;51.482;7.408;2023-03-01T14:58:52;10.70;;;6.23;;
4355;SDS011;64374;51.482;7.408;2023-03-01T15:01:21;6.90;;;5.80;;
4355;SDS011;64374;51.482;7.408;2023-03-01T15:03:49;6.33;;;5.63;;
4355;SDS011;64374;51.482;7.408;2023-03-01T15:06:20;8.13;;;6.43;;
4355;SDS011;64374;51.482;7.408;2023-03-01T15:08:51;6.97;;;5.47;;
4355;SDS011;64374;51.482;7.408;2023-03-01T15:11:23;7.00;;;5.80;;
4355;SDS011;64374;51.482;7.408;2023-03-01T15:13:55;10.73;;;5.77;;
4355;SDS011;64374;51.482;7.408;2023-03-01T15:16:24;7.10;;;5.40;;
4355;SDS011;64374;51.482;7.408;2023-03-01T15:18:57;12.73;;;6.80;;
4355;SDS011;64374;51.482;7.408;2023-03-01T15:21:29;10.20;;;6.03;;
4355;SDS011;64374;51.482;7.408;2023-03-01T15:24:00;10.60;;;6.07;;
4355;SDS011;64374;51.482;7.408;2023-03-01T15:26:35;10.03;;;6.20;;
4355;SDS011;64374;51.482;7.408;2023-03-01T15:29:11;11.90;;;5.80;;
4355;SDS011;64374;51.482;7.408;2023-03-01T15:31:53;13.63;;;5.63;;
4355;SDS011;64374;51.482;7.408;2023-03-01T15:34:23;8.90;;;5.70;;
4355;SDS011;64374;51.482;7.408;2023-03-01T15:36:54;10.00;;;6.40;;
4355;SDS011;64374;51.482;7.408;2023-03-01T15:45:21;11.60;;;5.83;;
4355;SDS011;64374;51.482;7.408;2023-03-01T15:47:54;6.13;;;5.27;;
4355;SDS011;64374;51.482;7.408;2023-03-01T15:50:26;8.33;;;6.00;;
4355;SDS011;64374;51.482;7.408;2023-03-01T15:52:57;7.53;;;5.37;;
4355;SDS011;64374;51.482;7.408;2023-03-01T15:55:27;7.20;;;5.40;;